Flight Track Log - Related Links

Times and Time Zones

All times are in EDT time to prevent confusion due to time zone crossing. See the CES2293 flight status page for this flight to view local times or setup timezone preferences in your user account.

Time Position Orientation Groundspeed Altitude Reporting Facility
EDT Latitude Longitude Course Direction KTS MPH feet Rate Location/Type
Fri 07:31:00 AM 33.3932 107.4725 226° Southwest  Level Estimated
Fri 07:32:00 AM 33.3224 107.3884 225° Southwest  Level Estimated
Fri 07:33:00 AM 33.2517 107.3043 225° Southwest  Level Estimated
Fri 07:34:00 AM 33.1808 107.2204 225° Southwest  Level Estimated
Fri 07:35:00 AM 33.1099 107.1367 225° Southwest  Level Estimated
Fri 07:36:00 AM 33.0390 107.0531 225° Southwest  Level Estimated
Fri 07:37:00 AM 32.9679 106.9696 225° Southwest  Level Estimated
Fri 07:38:00 AM 32.8969 106.8863 225° Southwest  Level Estimated
Fri 07:39:00 AM 32.8258 106.8030 225° Southwest  Level Estimated
Fri 07:40:00 AM 32.7546 106.7200 224° Southwest  Level Estimated
Fri 07:41:00 AM 32.6834 106.6370 224° Southwest  Level Estimated
Fri 07:42:00 AM 32.6121 106.5542 224° Southwest  Level Estimated
Fri 07:43:00 AM 32.5407 106.4715 224° Southwest  Level Estimated
Fri 07:44:00 AM 32.4694 106.3890 224° Southwest  Level Estimated
Fri 07:45:00 AM 32.3979 106.3065 224° Southwest  Level Estimated
Fri 07:46:00 AM 32.3264 106.2243 224° Southwest  Level Estimated
Fri 07:47:00 AM 32.2549 106.1421 224° Southwest  Level Estimated
Fri 07:48:00 AM 32.1833 106.0601 224° Southwest  Level Estimated
Fri 07:49:00 AM 32.1116 105.9782 224° Southwest  Level Estimated
Fri 07:50:00 AM 32.0399 105.8964 224° Southwest  Level Estimated
Fri 07:51:00 AM 31.9681 105.8148 224° Southwest  Level Estimated
Fri 07:52:00 AM 31.8963 105.7332 224° Southwest  Level Estimated
Fri 07:53:00 AM 31.8244 105.6518 224° Southwest  Level Estimated
Fri 07:54:00 AM 31.7525 105.5706 224° Southwest  Level Estimated
Fri 07:55:00 AM 31.6805 105.4894 224° Southwest  Level Estimated
Fri 07:56:00 AM 31.6085 105.4084 224° Southwest  Level Estimated
Fri 07:57:00 AM 31.5364 105.3276 224° Southwest  Level Estimated
Fri 07:58:00 AM 31.4643 105.2468 224° Southwest  Level Estimated
Fri 07:59:00 AM 31.3922 105.1662 224° Southwest  Level Estimated
Fri 08:00:00 AM 31.3199 105.0856 224° Southwest  Level Estimated
Fri 08:01:00 AM 31.2477 105.0052 224° Southwest  Level Estimated
Fri 08:02:00 AM 31.1753 104.9250 224° Southwest  Level Estimated
Fri 08:03:00 AM 31.1029 104.8448 223° Southwest  Level Estimated
Fri 08:04:00 AM 31.0305 104.7648 223° Southwest  Level Estimated
Fri 08:05:00 AM 30.9580 104.6849 223° Southwest  Level Estimated
Fri 08:06:00 AM 30.8855 104.6051 223° Southwest  Level Estimated
Fri 08:07:00 AM 30.8130 104.5255 223° Southwest  Level Estimated
Fri 08:08:00 AM 30.7403 104.4459 223° Southwest  Level Estimated
Fri 08:09:00 AM 30.6677 104.3665 223° Southwest  Level Estimated
Fri 08:10:00 AM 30.5949 104.2872 223° Southwest  Level Estimated
Fri 08:11:00 AM 30.5222 104.2080 223° Southwest  Level Estimated
Fri 08:12:00 AM 30.4494 104.1290 223° Southwest  Level Estimated
Fri 08:13:00 AM 30.3765 104.0500 223° Southwest  Level Estimated
Fri 08:14:00 AM 30.3036 103.9712 223° Southwest  Level Estimated
Fri 08:15:00 AM 30.2306 103.8925 223° Southwest  Level Estimated
Fri 08:16:00 AM 30.1576 103.8139 223° Southwest  Level Estimated
Fri 08:17:00 AM 30.0846 103.7354 223° Southwest  Level Estimated
Fri 08:18:00 AM 30.0115 103.6571 223° Southwest  Level Estimated
Fri 08:19:00 AM 29.9384 103.5788 223° Southwest  Level Estimated
Fri 08:20:00 AM 29.8652 103.5007 223° Southwest  Level Estimated
Fri 08:21:00 AM 29.7919 103.4227 223° Southwest  Level Estimated
Fri 08:22:00 AM 29.7187 103.3448 223° Southwest  Level Estimated
Fri 08:23:00 AM 29.6453 103.2670 223° Southwest  Level Estimated
Fri 08:24:00 AM 29.5720 103.1893 223° Southwest  Level Estimated
Fri 08:25:00 AM 29.4985 103.1118 223° Southwest  Level Estimated
Fri 08:26:00 AM 29.4251 103.0343 223° Southwest  Level Estimated
Fri 08:27:00 AM 29.3516 102.9570 223° Southwest  Level Estimated
Fri 08:28:00 AM 29.2780 102.8798 222° Southwest  Level Estimated
Fri 08:29:00 AM 29.2044 102.8027 222° Southwest  Level Estimated
Fri 08:30:00 AM 29.1308 102.7257 222° Southwest  Level Estimated
Fri 08:31:00 AM 29.0571 102.6488 222° Southwest  Level Estimated
Fri 08:32:00 AM 28.9834 102.5720 222° Southwest  Level Estimated
Fri 08:33:00 AM 28.9096 102.4953 222° Southwest  Level Estimated
Fri 08:34:00 AM 28.8358 102.4188 222° Southwest  Level Estimated
Fri 08:35:00 AM 28.7619 102.3423 222° Southwest  Level Estimated
Fri 08:36:00 AM 28.6880 102.2660 222° Southwest  Level Estimated
Fri 08:37:00 AM 28.6141 102.1897 222° Southwest  Level Estimated
Fri 08:38:00 AM 28.5401 102.1136 222° Southwest  Level Estimated
Fri 08:39:00 AM 28.4661 102.0376 222° Southwest  Level Estimated
Fri 08:40:00 AM 28.3920 101.9616 222° Southwest  Level Estimated
Fri 08:41:00 AM 28.3179 101.8858 222° Southwest  Level Estimated
Fri 08:42:00 AM 28.2438 101.8101 222° Southwest  Level Estimated
Fri 08:43:00 AM 28.1696 101.7345 222° Southwest  Level Estimated
Fri 08:44:00 AM 28.0953 101.6590 222° Southwest  Level Estimated
Fri 08:45:00 AM 28.0210 101.5836 222° Southwest  Level Estimated
Fri 08:46:00 AM 27.9467 101.5083 222° Southwest  Level Estimated
Fri 08:47:00 AM 27.8724 101.4331 222° Southwest  Level Estimated
Fri 08:48:00 AM 27.7980 101.3581 222° Southwest  Level Estimated
Fri 08:49:00 AM 27.7235 101.2831 222° Southwest  Level Estimated
Fri 08:50:00 AM 27.6490 101.2082 222° Southwest  Level Estimated
Fri 08:51:00 AM 27.5745 101.1334 222° Southwest  Level Estimated
Fri 08:52:00 AM 27.5000 101.0587 222° Southwest  Level Estimated
Fri 08:53:00 AM 27.4254 100.9842 222° Southwest  Level Estimated
Fri 08:54:00 AM 27.3507 100.9097 222° Southwest  Level Estimated
Fri 08:55:00 AM 27.2761 100.8353 222° Southwest  Level Estimated
Fri 08:56:00 AM 27.2013 100.7611 221° Southwest  Level Estimated
Fri 08:57:00 AM 27.1266 100.6869 221° Southwest  Level Estimated
Fri 08:58:00 AM 27.0518 100.6128 221° Southwest  Level Estimated
Fri 08:59:00 AM 26.9769 100.5388 221° Southwest  Level Estimated
Fri 09:00:00 AM 26.9021 100.4650 221° Southwest  Level Estimated
Fri 09:01:00 AM 26.8272 100.3912 221° Southwest  Level Estimated
Fri 09:02:00 AM 26.7522 100.3175 221° Southwest  Level Estimated
Fri 09:03:00 AM 26.6792 100.2458 221° Southwest  Level Estimated
Fri 09:04:00 AM 26.6792 100.2458 138° Southeast  Level Estimated
Fri 09:05:00 AM 26.6792 100.2458 138° Southeast  Level Estimated
Fri 09:06:00 AM 26.6792 100.2458 138° Southeast  Level Estimated
Fri 09:07:00 AM 26.6792 100.2458 138° Southeast  Level Estimated
Fri 09:08:00 AM 26.6792 100.2458 138° Southeast  Level Estimated
Fri 09:09:00 AM 26.6792 100.2458 138° Southeast  Level Estimated
Fri 09:10:00 AM 26.6792 100.2458 138° Southeast  Level Estimated
Fri 09:11:00 AM 26.6792 100.2458 138° Southeast  Level Estimated
Fri 09:12:00 AM 26.6792 100.2458 138° Southeast  Level Estimated
Fri 09:13:00 AM 26.6792 100.2458 138° Southeast  Level Estimated
Fri 09:14:00 AM 26.6792 100.2458 138° Southeast  Level Estimated
Fri 09:15:00 AM 26.6792 100.2458 138° Southeast  Level Estimated
Fri 09:16:00 AM 26.6792 100.2458 138° Southeast  Level Estimated
Fri 09:17:00 AM 26.6792 100.2458 138° Southeast  Level Estimated
Fri 09:18:00 AM 26.6792 100.2458 138° Southeast  Level Estimated
Fri 09:19:00 AM 26.6792 100.2458 138° Southeast  Level Estimated
Fri 09:20:00 AM 26.6792 100.2458 138° Southeast  Level Estimated

Login

Don't have an account? Register now (free) for customized features, flight alerts, and more!